Time;durP1;ratioP1;P1;durP2;ratioP2;P2;SDS_P1;SDS_P2;PMS_P1;PMS_P2;Temp;Humidity;BMP_temperature;BMP_pressure;BME280_temperature;BME280_humidity;BME280_pressure;Samples;Min_cycle;Max_cycle;Signal;HPM_P1;HPM_P2
2022/09/10 00:01:15;;;;;;;6.42;4.12;;;;;;;25.22;49.87;100521.30;1771526;79;21012;-78
2022/09/10 00:03:42;;;;;;;6.05;4.60;;;;;;;25.22;49.87;100524.90;1771272;81;21031;-77
2022/09/10 00:06:08;;;;;;;7.83;4.97;;;;;;;25.22;49.87;100524.08;1751088;81;21092;-77
2022/09/10 00:08:35;;;;;;;7.42;5.12;;;;;;;25.22;49.89;100528.27;1713375;82;21519;-77
2022/09/10 00:11:07;;;;;;;5.45;4.42;;;;;;;25.22;49.89;100524.08;1766389;80;21043;-78
2022/09/10 00:13:33;;;;;;;7.40;4.42;;;;;;;25.21;49.88;100528.03;1762426;80;21044;-77
2022/09/10 00:16:02;;;;;;;6.90;4.85;;;;;;;25.22;49.89;100525.48;1764365;81;21002;-77
2022/09/10 00:18:29;;;;;;;6.62;4.83;;;;;;;25.22;49.88;100518.52;1762976;81;20976;-77
2022/09/10 00:20:56;;;;;;;5.83;4.70;;;;;;;25.22;49.90;100517.12;1762576;80;22026;-77
2022/09/10 00:23:25;;;;;;;6.58;4.25;;;;;;;25.21;49.90;100513.52;1759032;80;21040;-77
2022/09/10 00:25:53;;;;;;;6.33;4.40;;;;;;;25.22;49.91;100517.12;1759100;81;21083;-77
2022/09/10 00:28:21;;;;;;;5.20;4.45;;;;;;;25.21;49.90;100516.89;1760845;80;21035;-77
2022/09/10 00:30:49;;;;;;;5.30;4.28;;;;;;;25.21;49.91;100516.31;1762309;80;21506;-77
2022/09/10 00:33:17;;;;;;;6.22;4.50;;;;;;;25.21;49.91;100511.32;1762033;80;21174;-77
2022/09/10 00:35:44;;;;;;;5.85;4.53;;;;;;;25.21;49.92;100509.93;1762275;81;21060;-77
2022/09/10 00:38:10;;;;;;;5.42;4.55;;;;;;;25.20;49.92;100502.19;1761609;80;21517;-77
2022/09/10 00:40:37;;;;;;;6.62;4.50;;;;;;;25.20;49.91;100499.41;1762150;80;20992;-77
2022/09/10 00:43:05;;;;;;;5.70;4.30;;;;;;;25.20;49.93;100498.02;1761877;80;20989;-77
2022/09/10 00:45:32;;;;;;;5.87;4.55;;;;;;;25.21;49.91;100505.17;1762705;81;21525;-77
2022/09/10 00:48:06;;;;;;;6.78;4.45;;;;;;;25.20;49.92;100498.02;1761897;81;21083;-78
2022/09/10 00:50:35;;;;;;;5.78;4.30;;;;;;;25.20;49.91;100510.54;1762429;80;21071;-77
2022/09/10 00:53:04;;;;;;;5.40;4.03;;;;;;;25.21;49.92;100507.14;1758552;81;21020;-77
2022/09/10 00:55:33;;;;;;;7.17;4.23;;;;;;;25.20;49.93;100503.58;1759884;80;21074;-77
2022/09/10 00:58:03;;;;;;;6.53;4.37;;;;;;;25.20;49.93;100506.36;1755891;81;22543;-77
2022/09/10 01:00:30;;;;;;;5.62;4.40;;;;;;;25.20;49.95;100506.36;1761796;81;21494;-77
2022/09/10 01:02:58;;;;;;;6.33;4.05;;;;;;;25.20;49.93;100502.77;1761982;81;21082;-77
2022/09/10 01:05:25;;;;;;;5.20;4.05;;;;;;;25.18;49.93;100504.50;1760561;80;21065;-77
2022/09/10 01:07:52;;;;;;;5.80;4.28;;;;;;;25.20;49.96;100506.36;1761629;81;21103;-77
2022/09/10 01:10:28;;;;;;;5.70;4.20;;;;;;;25.19;49.94;100498.36;1761752;81;21742;-77
2022/09/10 01:13:20;;;;;;;5.03;4.10;;;;;;;25.19;49.96;100496.97;1769352;79;21050;-78
2022/09/10 01:16:07;;;;;;;5.67;4.00;;;;;;;25.20;49.95;100497.20;1768406;81;21799;-78
2022/09/10 01:18:59;;;;;;;6.00;4.12;;;;;;;25.18;49.93;100500.33;1769736;80;21020;-78
2022/09/10 01:21:53;;;;;;;6.00;4.10;;;;;;;25.18;49.93;100507.86;1774413;79;21130;-78
2022/09/10 01:24:47;;;;;;;5.90;4.03;;;;;;;25.17;49.92;100502.88;1775501;80;21204;-77
2022/09/10 01:27:36;;;;;;;4.97;4.35;;;;;;;25.16;49.94;100494.90;1774595;80;21503;-78
2022/09/10 01:30:18;;;;;;;6.70;4.15;;;;;;;25.17;49.94;100506.23;1767501;79;21054;-78
2022/09/10 01:32:55;;;;;;;6.47;4.28;;;;;;;25.15;49.93;100500.23;1768431;80;21017;-78
2022/09/10 01:35:39;;;;;;;5.83;4.03;;;;;;;25.15;49.95;100502.44;1768393;79;21070;-78
2022/09/10 01:38:10;;;;;;;5.87;4.55;;;;;;;25.15;49.96;100507.20;1789136;78;21083;-78
2022/09/10 01:40:36;;;;;;;5.30;4.08;;;;;;;25.14;49.99;100504.98;1777175;79;21070;-77
2022/09/10 01:43:08;;;;;;;5.08;4.47;;;;;;;25.16;50.00;100507.43;1746385;80;21020;-78
2022/09/10 01:45:51;;;;;;;4.35;3.80;;;;;;;25.14;50.01;100504.98;1759942;81;21000;-78
2022/09/10 01:48:49;;;;;;;5.90;3.85;;;;;;;25.16;50.01;100513.00;1742872;80;21047;-77
2022/09/10 01:51:53;;;;;;;5.12;3.87;;;;;;;25.15;50.00;100512.77;1759919;80;21249;-77
2022/09/10 01:54:37;;;;;;;5.28;4.03;;;;;;;25.15;50.00;100510.80;1767904;79;21023;-78
2022/09/10 01:57:29;;;;;;;4.87;3.52;;;;;;;25.14;49.99;100499.42;1770100;80;21037;-78
2022/09/10 02:00:08;;;;;;;5.53;4.15;;;;;;;25.15;49.99;100505.22;1776188;80;20996;-78
2022/09/10 02:02:57;;;;;;;5.35;3.95;;;;;;;25.14;49.99;100506.38;1781340;80;20980;-78
2022/09/10 02:05:25;;;;;;;4.20;3.77;;;;;;;25.14;50.00;100500.81;1769213;80;21597;-79
2022/09/10 02:07:55;;;;;;;5.22;4.15;;;;;;;25.14;50.00;100500.00;1766756;80;21020;-79
2022/09/10 02:10:22;;;;;;;4.83;4.12;;;;;;;25.14;50.03;100498.61;1747120;81;21078;-79
2022/09/10 02:12:48;;;;;;;4.35;3.52;;;;;;;25.13;50.03;100492.23;1740455;81;21556;-79
2022/09/10 02:15:15;;;;;;;4.95;3.92;;;;;;;25.14;50.06;100495.25;1765243;80;21481;-77
2022/09/10 02:17:42;;;;;;;6.05;4.30;;;;;;;25.14;50.04;100493.04;1767637;80;21174;-77
2022/09/10 02:20:12;;;;;;;5.47;3.80;;;;;;;25.14;50.06;100490.25;1774288;80;21005;-77
2022/09/10 02:22:54;;;;;;;6.08;4.45;;;;;;;25.14;50.06;100489.68;1766934;80;21051;-77
2022/09/10 02:25:20;;;;;;;8.13;4.05;;;;;;;25.15;50.06;100473.78;1775386;80;21107;-77
2022/09/10 02:27:47;;;;;;;5.67;4.05;;;;;;;25.14;50.06;100472.97;1778526;80;21102;-77
2022/09/10 02:30:15;;;;;;;5.28;3.83;;;;;;;25.14;50.05;100470.19;1750657;80;21566;-77
2022/09/10 02:32:41;;;;;;;6.10;3.60;;;;;;;25.15;50.05;100472.39;1777076;80;21079;-76
2022/09/10 02:35:08;;;;;;;4.58;3.58;;;;;;;25.16;50.05;100468.45;1775508;80;21513;-77
2022/09/10 02:37:35;;;;;;;4.55;3.65;;;;;;;25.16;50.05;100468.45;1779178;80;21036;-77
2022/09/10 02:40:02;;;;;;;4.62;4.08;;;;;;;25.15;50.05;100466.25;1773566;80;21073;-77
2022/09/10 02:42:28;;;;;;;4.60;3.70;;;;;;;25.15;50.06;100469.61;1765523;80;21494;-77
2022/09/10 02:44:55;;;;;;;4.30;3.75;;;;;;;25.15;50.06;100464.86;1768163;80;20993;-77
2022/09/10 02:47:21;;;;;;;4.72;3.90;;;;;;;25.15;50.06;100469.03;1776051;80;20992;-77
2022/09/10 02:49:48;;;;;;;4.37;3.70;;;;;;;25.15;50.04;100469.03;1778714;80;21470;-77
2022/09/10 02:52:14;;;;;;;4.50;3.67;;;;;;;25.15;50.07;100467.64;1778661;80;21055;-77
2022/09/10 02:54:41;;;;;;;4.75;3.67;;;;;;;25.16;50.05;100478.20;1773716;80;21075;-77
2022/09/10 02:57:07;;;;;;;4.12;3.52;;;;;;;25.16;50.07;100473.44;1778196;79;21024;-77
2022/09/10 02:59:33;;;;;;;6.08;4.50;;;;;;;25.16;50.07;100480.98;1776377;80;21039;-77
2022/09/10 03:02:00;;;;;;;4.12;3.58;;;;;;;25.16;50.06;100482.38;1765320;80;21030;-77
2022/09/10 03:04:26;;;;;;;4.40;3.67;;;;;;;25.16;50.07;100483.19;1738100;81;21647;-77
2022/09/10 03:06:54;;;;;;;3.85;3.27;;;;;;;25.17;50.07;100485.36;1765466;80;21156;-77
2022/09/10 03:09:21;;;;;;;5.37;3.55;;;;;;;25.18;50.05;100492.55;1770370;80;21551;-77
2022/09/10 03:11:48;;;;;;;4.33;3.60;;;;;;;25.17;50.06;100485.36;1766518;80;21118;-77
2022/09/10 03:14:19;;;;;;;5.05;3.58;;;;;;;25.17;50.05;100490.93;1773737;80;21036;-77
2022/09/10 03:16:43;;;;;;;5.30;3.58;;;;;;;25.16;50.05;100487.36;1785834;80;21086;-77
2022/09/10 03:19:09;;;;;;;5.47;3.70;;;;;;;25.16;50.05;100485.97;1766890;80;21237;-78
2022/09/10 03:21:35;;;;;;;4.92;3.45;;;;;;;25.17;50.06;100489.53;1761901;80;21051;-78
2022/09/10 03:24:03;;;;;;;4.83;3.90;;;;;;;25.17;50.06;100481.19;1761846;81;21577;-78
2022/09/10 03:26:29;;;;;;;4.35;3.25;;;;;;;25.16;50.06;100480.98;1762508;80;21091;-78
2022/09/10 03:28:55;;;;;;;4.85;3.35;;;;;;;25.17;50.07;100484.78;1761461;80;21557;-78
2022/09/10 03:31:21;;;;;;;4.37;3.37;;;;;;;25.16;50.07;100480.98;1762084;81;22329;-78
2022/09/10 03:33:48;;;;;;;4.40;3.60;;;;;;;25.16;50.08;100492.93;1761970;81;21067;-77
2022/09/10 03:36:14;;;;;;;5.67;3.80;;;;;;;25.17;50.06;100492.32;1762305;80;21422;-78
2022/09/10 03:38:40;;;;;;;4.33;3.55;;;;;;;25.16;50.08;100492.93;1761794;81;21056;-78
2022/09/10 03:41:07;;;;;;;6.03;4.15;;;;;;;25.16;50.07;100495.72;1732182;82;21023;-78
2022/09/10 03:43:33;;;;;;;6.05;3.30;;;;;;;25.16;50.08;100495.72;1756580;80;21502;-78
2022/09/10 03:46:01;;;;;;;4.33;3.50;;;;;;;25.17;50.08;100495.11;1762066;81;21008;-78
2022/09/10 03:48:28;;;;;;;4.10;3.55;;;;;;;25.16;50.09;100491.54;1761891;81;21493;-78
2022/09/10 03:50:55;;;;;;;4.42;3.50;;;;;;;25.16;50.08;100495.72;1760537;81;21059;-78
2022/09/10 03:53:21;;;;;;;5.58;3.47;;;;;;;25.16;50.09;100490.14;1762260;80;21079;-77
2022/09/10 03:55:49;;;;;;;3.47;2.98;;;;;;;25.16;50.11;100502.67;1729899;81;21832;-78
2022/09/10 03:58:16;;;;;;;3.80;3.40;;;;;;;25.17;50.11;100499.28;1762268;80;21490;-78
2022/09/10 04:00:43;;;;;;;4.03;3.55;;;;;;;25.16;50.11;100495.72;1762236;80;21096;-77
2022/09/10 04:03:13;;;;;;;4.05;3.40;;;;;;;25.16;50.12;100489.33;1762303;80;21442;-78
2022/09/10 04:05:39;;;;;;;4.00;3.27;;;;;;;25.15;50.11;100495.48;1762462;81;21064;-78
2022/09/10 04:08:06;;;;;;;4.20;3.50;;;;;;;25.16;50.11;100494.90;1761765;80;21193;-78
2022/09/10 04:10:32;;;;;;;4.17;3.20;;;;;;;25.16;50.12;100503.25;1762357;80;21036;-78
2022/09/10 04:12:59;;;;;;;4.97;3.30;;;;;;;25.15;50.12;100490.48;1736755;80;21061;-78
2022/09/10 04:15:25;;;;;;;3.52;2.87;;;;;;;25.16;50.12;100499.08;1735992;81;20999;-77
2022/09/10 04:17:51;;;;;;;3.72;3.17;;;;;;;25.16;50.12;100497.69;1740146;81;21619;-78
2022/09/10 04:20:19;;;;;;;3.60;3.00;;;;;;;25.16;50.11;100487.94;1736415;82;21232;-78
2022/09/10 04:22:46;;;;;;;3.85;3.10;;;;;;;25.16;50.12;100487.94;1746076;81;21450;-79
2022/09/10 04:25:14;;;;;;;4.87;3.22;;;;;;;25.15;50.13;100493.27;1736678;82;21024;-77
2022/09/10 04:27:41;;;;;;;3.47;3.10;;;;;;;25.16;50.13;100497.69;1736459;82;21016;-78
2022/09/10 04:30:09;;;;;;;4.53;3.02;;;;;;;25.16;50.14;100487.94;1727000;83;21558;-78
2022/09/10 04:32:36;;;;;;;3.77;3.10;;;;;;;25.15;50.13;100488.52;1731953;82;21092;-78
2022/09/10 04:35:02;;;;;;;4.03;3.17;;;;;;;25.15;50.15;100488.52;1743124;81;21089;-78
2022/09/10 04:37:29;;;;;;;3.50;2.95;;;;;;;25.15;50.16;100486.31;1731082;81;21557;-78
2022/09/10 04:39:55;;;;;;;5.15;3.27;;;;;;;25.16;50.15;100492.12;1741279;82;21044;-78
2022/09/10 04:42:22;;;;;;;4.80;3.12;;;;;;;25.16;50.16;100489.33;1741015;82;21087;-78
2022/09/10 04:44:48;;;;;;;4.42;2.95;;;;;;;25.15;50.15;100498.27;1737660;82;21513;-78
2022/09/10 04:47:15;;;;;;;4.08;3.50;;;;;;;25.15;50.18;100495.48;1737405;82;21075;-78
2022/09/10 04:49:42;;;;;;;3.92;3.17;;;;;;;25.16;50.16;100489.33;1701768;82;21040;-78
2022/09/10 04:52:12;;;;;;;4.33;3.22;;;;;;;25.16;50.16;100485.16;1741523;81;21078;-78
2022/09/10 04:54:38;;;;;;;4.72;3.30;;;;;;;25.15;50.18;100489.91;1743933;81;21122;-78
2022/09/10 04:57:05;;;;;;;4.12;3.30;;;;;;;25.15;50.18;100488.52;1740290;82;21536;-78
2022/09/10 04:59:31;;;;;;;3.75;2.85;;;;;;;25.15;50.17;100480.75;1738581;81;21534;-80
2022/09/10 05:01:58;;;;;;;3.50;2.77;;;;;;;25.15;50.18;100464.86;1743655;81;21084;-77
2022/09/10 05:04:24;;;;;;;3.75;3.15;;;;;;;25.15;50.16;100471.81;1742937;81;21119;-78
2022/09/10 05:06:52;;;;;;;3.47;2.70;;;;;;;25.15;50.19;100478.78;1743383;81;21511;-77
2022/09/10 05:09:18;;;;;;;4.00;3.02;;;;;;;25.15;50.19;100484.34;1743591;81;21130;-78
2022/09/10 05:11:48;;;;;;;4.28;3.15;;;;;;;25.15;50.17;100491.88;1737247;81;21521;-77
2022/09/10 05:14:15;;;;;;;3.60;3.10;;;;;;;25.15;50.19;100489.91;1782361;80;21037;-78
2022/09/10 05:16:47;;;;;;;4.30;3.17;;;;;;;25.15;50.20;100488.52;1786867;79;21006;-78
2022/09/10 05:19:16;;;;;;;3.10;2.67;;;;;;;25.14;50.20;100477.73;1791865;79;21454;-78
2022/09/10 05:21:44;;;;;;;3.47;3.08;;;;;;;25.15;50.19;100475.17;1805706;79;21173;-77
2022/09/10 05:24:10;;;;;;;3.80;2.95;;;;;;;25.15;50.20;100469.61;1789195;79;21017;-77
2022/09/10 05:26:37;;;;;;;4.33;3.12;;;;;;;25.15;50.20;100465.44;1787403;80;21387;-77
2022/09/10 05:29:03;;;;;;;4.47;3.10;;;;;;;25.14;50.20;100468.80;1779811;80;21008;-78
2022/09/10 05:31:29;;;;;;;3.15;2.75;;;;;;;25.15;50.20;100458.47;1786463;80;20932;-78
2022/09/10 05:33:58;;;;;;;4.33;3.08;;;;;;;25.15;50.21;100462.07;1746287;82;21873;-78
2022/09/10 05:36:24;;;;;;;3.40;2.87;;;;;;;25.15;50.22;100463.47;1748764;82;21041;-78
2022/09/10 05:38:50;;;;;;;5.15;2.95;;;;;;;25.15;50.21;100466.25;1787324;80;21057;-78
2022/09/10 05:41:17;;;;;;;2.83;2.55;;;;;;;25.16;50.24;100464.28;1758181;79;21075;-78
2022/09/10 05:43:43;;;;;;;3.35;3.05;;;;;;;25.16;50.25;100473.44;1778558;80;21077;-78
2022/09/10 05:46:10;;;;;;;5.40;2.90;;;;;;;25.16;50.22;100467.87;1782694;79;21475;-78
2022/09/10 05:48:39;;;;;;;5.08;2.98;;;;;;;25.16;50.24;100460.09;1787358;80;21043;-78
2022/09/10 05:51:06;;;;;;;4.03;3.10;;;;;;;25.16;50.25;100463.70;1787063;80;21503;-78
2022/09/10 05:53:42;;;;;;;3.85;3.30;;;;;;;25.17;50.23;100459.72;1787397;79;21437;-78
2022/09/10 05:56:08;;;;;;;4.20;3.30;;;;;;;25.16;50.26;100457.31;1799372;79;21081;-78
2022/09/10 05:58:34;;;;;;;4.70;3.25;;;;;;;25.15;50.25;100455.11;1749832;82;21181;-77
2022/09/10 06:01:01;;;;;;;3.67;2.65;;;;;;;25.16;50.24;100453.14;1699497;84;21480;-77
2022/09/10 06:03:27;;;;;;;3.85;2.72;;;;;;;25.16;50.27;100448.39;1756929;81;22200;-78
2022/09/10 06:05:54;;;;;;;3.60;2.90;;;;;;;25.17;50.26;100451.95;1765535;81;21088;-77
2022/09/10 06:08:21;;;;;;;5.00;2.98;;;;;;;25.17;50.27;100446.38;1765284;81;21004;-78
2022/09/10 06:11:07;;;;;;;3.62;3.00;;;;;;;25.16;50.28;100448.39;1765138;81;21175;-78
2022/09/10 06:13:33;;;;;;;3.12;2.55;;;;;;;25.18;50.27;100452.19;1739603;80;21052;-78
2022/09/10 06:16:00;;;;;;;3.65;3.10;;;;;;;25.17;50.27;100458.91;1727270;82;21027;-77
2022/09/10 06:18:27;;;;;;;3.40;2.55;;;;;;;25.17;50.28;100461.70;1717546;82;21049;-78
2022/09/10 06:21:10;;;;;;;3.90;3.00;;;;;;;25.18;50.27;100461.34;1717282;83;21555;-77
2022/09/10 06:23:36;;;;;;;3.85;2.85;;;;;;;25.17;50.28;100461.11;1729887;82;21293;-77
2022/09/10 06:26:12;;;;;;;4.35;2.75;;;;;;;25.18;50.27;100452.19;1737984;81;21028;-77
2022/09/10 06:28:38;;;;;;;2.83;2.52;;;;;;;25.19;50.30;100453.81;1736944;82;21016;-77
2022/09/10 06:31:05;;;;;;;3.12;2.52;;;;;;;25.17;50.30;100459.72;1740049;82;21511;-77
2022/09/10 06:33:32;;;;;;;4.97;3.05;;;;;;;25.19;50.30;100457.98;1742461;82;21097;-78
2022/09/10 06:35:59;;;;;;;3.75;3.20;;;;;;;25.18;50.32;100454.39;1743452;82;21129;-77
2022/09/10 06:38:32;;;;;;;3.12;2.80;;;;;;;25.19;50.33;100464.95;1743290;82;21059;-77
2022/09/10 06:41:00;;;;;;;3.77;2.72;;;;;;;25.18;50.32;100466.92;1741720;82;21124;-77
2022/09/10 06:43:27;;;;;;;3.62;2.62;;;;;;;25.20;50.32;100472.95;1735970;81;21036;-77
2022/09/10 06:45:53;;;;;;;3.83;2.85;;;;;;;25.20;50.33;100467.97;1731641;81;21070;-77
2022/09/10 06:48:26;;;;;;;3.08;2.77;;;;;;;25.20;50.35;100467.38;1743484;82;21113;-77
2022/09/10 06:50:58;;;;;;;3.70;2.85;;;;;;;25.22;50.34;100467.01;1740205;82;21557;-78
2022/09/10 06:53:28;;;;;;;3.77;2.62;;;;;;;25.20;50.36;100478.52;1738070;82;21543;-78
2022/09/10 06:55:54;;;;;;;3.67;2.70;;;;;;;25.22;50.34;100483.71;1704520;83;21502;-77
2022/09/10 06:58:25;;;;;;;4.00;3.05;;;;;;;25.20;50.36;100482.70;1727253;82;21080;-77
2022/09/10 07:00:58;;;;;;;3.00;2.58;;;;;;;25.21;50.33;100485.69;1738334;82;21612;-77
2022/09/10 07:03:24;;;;;;;3.35;2.60;;;;;;;25.21;50.37;100487.08;1730478;82;21051;-77
2022/09/10 07:05:54;;;;;;;3.45;2.80;;;;;;;25.22;50.38;100485.11;1732825;82;21117;-77
2022/09/10 07:08:24;;;;;;;3.85;2.65;;;;;;;25.22;50.37;100492.88;1743114;82;21525;-77
2022/09/10 07:10:50;;;;;;;3.77;2.75;;;;;;;25.21;50.36;100502.39;1741920;82;21609;-77
2022/09/10 07:13:17;;;;;;;3.60;2.83;;;;;;;25.22;50.40;100500.42;1754414;80;21484;-77
2022/09/10 07:15:48;;;;;;;4.83;2.70;;;;;;;25.21;50.38;100496.83;1745828;82;21014;-77
2022/09/10 07:18:14;;;;;;;4.08;2.70;;;;;;;25.22;50.38;100496.24;1764502;80;21473;-77
2022/09/10 07:20:44;;;;;;;3.00;2.40;;;;;;;25.21;50.39;100493.22;1765066;80;21059;-78
2022/09/10 07:23:12;;;;;;;2.98;2.67;;;;;;;25.22;50.41;100486.50;1761147;80;21021;-77
2022/09/10 07:25:39;;;;;;;3.15;2.60;;;;;;;25.22;50.40;100481.74;1778109;80;21890;-77
2022/09/10 07:28:12;;;;;;;2.87;2.52;;;;;;;25.23;50.40;100481.97;1781459;79;21087;-78
2022/09/10 07:30:34;;;;;;;2.85;2.52;;;;;;;25.24;50.41;100478.61;1786256;79;21585;-77
2022/09/10 07:33:01;;;;;;;3.70;2.60;;;;;;;25.24;50.40;100483.60;1751215;81;21466;-77
2022/09/10 07:35:27;;;;;;;5.12;2.80;;;;;;;25.25;50.41;100492.77;1750810;81;21081;-77
2022/09/10 07:37:53;;;;;;;3.60;2.20;;;;;;;25.23;50.40;100491.72;1764999;81;21309;-77
2022/09/10 07:40:19;;;;;;;3.47;2.50;;;;;;;25.24;50.41;100491.95;1764602;81;22245;-77
2022/09/10 07:42:46;;;;;;;3.92;2.70;;;;;;;25.25;50.40;100496.95;1764977;81;21043;-77
2022/09/10 07:45:14;;;;;;;2.90;2.30;;;;;;;25.26;50.39;100504.11;1764561;80;38818;-77
2022/09/10 07:47:43;;;;;;;3.37;2.58;;;;;;;25.27;50.39;100498.77;1764370;80;21487;-77
2022/09/10 07:50:10;;;;;;;2.70;2.37;;;;;;;25.26;50.40;100500.75;1764648;81;21131;-77
2022/09/10 07:52:36;;;;;;;3.42;2.50;;;;;;;25.27;50.40;100493.20;1764883;81;21537;-77
2022/09/10 07:55:03;;;;;;;2.90;2.52;;;;;;;25.27;50.41;100496.80;1786848;80;21006;-77
2022/09/10 07:57:30;;;;;;;3.17;2.70;;;;;;;25.26;50.41;100488.80;1787175;80;21023;-77
2022/09/10 07:59:59;;;;;;;2.95;2.62;;;;;;;25.27;50.40;100480.67;1724694;81;21069;-77
2022/09/10 08:02:26;;;;;;;3.58;2.55;;;;;;;25.26;50.39;100479.86;1787044;80;21261;-77
2022/09/10 08:04:52;;;;;;;4.33;2.55;;;;;;;25.28;50.39;100484.50;1787304;78;21543;-77
2022/09/10 08:07:18;;;;;;;3.75;2.75;;;;;;;25.28;50.38;100486.48;1799016;79;21005;-77
2022/09/10 08:09:45;;;;;;;3.62;2.55;;;;;;;25.27;50.38;100486.24;1776625;79;21046;-77
2022/09/10 08:12:11;;;;;;;2.58;2.35;;;;;;;25.27;50.38;100484.27;1790358;79;21022;-77
2022/09/10 08:14:37;;;;;;;2.83;2.52;;;;;;;25.28;50.38;100490.66;1787252;80;21875;-77
2022/09/10 08:17:04;;;;;;;2.62;2.30;;;;;;;25.28;50.37;100491.47;1786810;79;20988;-77
2022/09/10 08:19:30;;;;;;;2.83;2.40;;;;;;;25.27;50.37;100487.05;1787215;78;21073;-77
2022/09/10 08:21:57;;;;;;;3.50;2.47;;;;;;;25.28;50.37;100483.69;1805136;79;21055;-77
2022/09/10 08:24:23;;;;;;;3.58;2.67;;;;;;;25.29;50.38;100486.71;1786867;80;21043;-77
2022/09/10 08:26:50;;;;;;;3.05;2.50;;;;;;;25.29;50.37;100476.36;1786541;80;21510;-77
2022/09/10 08:29:16;;;;;;;3.85;2.85;;;;;;;25.29;50.37;100475.58;1778851;79;21478;-77
2022/09/10 08:31:43;;;;;;;3.40;2.50;;;;;;;25.29;50.36;100474.96;1778442;80;20976;-77
2022/09/10 08:34:10;;;;;;;3.37;2.20;;;;;;;25.28;50.38;100469.19;1786813;79;21079;-77
2022/09/10 08:36:38;;;;;;;3.85;2.50;;;;;;;25.30;50.36;100465.45;1786072;78;21047;-77
2022/09/10 08:39:04;;;;;;;3.60;2.50;;;;;;;25.29;50.33;100461.04;1800581;79;21472;-77
2022/09/10 08:41:42;;;;;;;3.58;2.67;;;;;;;25.30;50.35;100467.42;1788695;79;21105;-77
2022/09/10 08:44:16;;;;;;;2.95;2.50;;;;;;;25.30;50.33;100461.84;1786355;79;20968;-77
2022/09/10 08:46:54;;;;;;;2.90;2.27;;;;;;;25.32;50.32;100458.14;1789414;79;21051;-77
2022/09/10 08:49:45;;;;;;;3.37;2.33;;;;;;;25.31;50.32;100455.94;1756096;81;21032;-77
2022/09/10 08:52:47;;;;;;;2.83;2.17;;;;;;;25.32;50.32;100452.57;1785800;79;21912;-77
2022/09/10 08:55:22;;;;;;;3.00;2.33;;;;;;;25.30;50.32;100450.72;1787132;80;21517;-78
2022/09/10 08:58:20;;;;;;;3.05;2.10;;;;;;;25.31;50.30;100456.52;1754326;80;21103;-78
2022/09/10 09:00:53;;;;;;;3.85;2.30;;;;;;;25.30;50.31;100450.13;1784304;80;21107;-77
2022/09/10 09:03:33;;;;;;;3.40;2.75;;;;;;;25.30;50.31;100445.14;1759286;81;21027;-78
2022/09/10 09:06:09;;;;;;;2.58;2.22;;;;;;;25.31;50.33;100447.58;1756002;81;21216;-78
2022/09/10 09:08:40;;;;;;;3.37;2.25;;;;;;;25.30;50.32;100436.20;1779446;80;20975;-77
2022/09/10 09:11:21;;;;;;;2.85;2.55;;;;;;;25.30;50.33;100436.20;1787266;80;22048;-77
2022/09/10 09:14:34;;;;;;;2.92;2.37;;;;;;;25.30;50.35;100434.81;1752751;80;21495;-77
2022/09/10 09:17:35;;;;;;;3.52;2.50;;;;;;;25.29;50.33;100431.80;1721647;81;21025;-78
2022/09/10 09:20:21;;;;;;;3.15;2.52;;;;;;;25.29;50.32;100431.80;1748269;79;21142;-78
2022/09/10 09:23:05;;;;;;;3.87;2.25;;;;;;;25.29;50.33;100431.80;1773810;79;21062;-78
2022/09/10 09:25:48;;;;;;;2.47;2.20;;;;;;;25.29;50.33;100433.19;1761779;81;21007;-78
2022/09/10 09:28:43;;;;;;;3.08;2.22;;;;;;;25.29;50.34;100429.02;1761697;81;21040;-78
2022/09/10 09:31:21;;;;;;;2.62;2.35;;;;;;;25.30;50.35;100426.47;1761952;81;21537;-78
2022/09/10 09:33:47;;;;;;;2.80;2.33;;;;;;;25.30;50.33;100424.26;1761963;80;21486;-78
2022/09/10 09:36:17;;;;;;;2.77;2.22;;;;;;;25.29;50.34;100417.09;1761911;80;21074;-78
2022/09/10 09:38:47;;;;;;;3.27;2.58;;;;;;;25.29;50.37;100415.70;1761578;80;21063;-78
2022/09/10 09:41:26;;;;;;;3.67;2.50;;;;;;;25.29;50.38;100400.39;1761507;80;21065;-78
2022/09/10 09:44:21;;;;;;;2.87;2.40;;;;;;;25.29;50.37;100398.38;1728695;81;21092;-78
2022/09/10 09:46:48;;;;;;;2.58;2.20;;;;;;;25.31;50.37;100405.81;1762227;81;21259;-78
2022/09/10 09:49:15;;;;;;;2.77;2.50;;;;;;;25.31;50.37;100402.22;1762313;81;21469;-78
2022/09/10 09:51:44;;;;;;;3.77;2.30;;;;;;;25.30;50.37;100393.63;1762521;80;21297;-77
2022/09/10 09:54:23;;;;;;;3.50;2.47;;;;;;;25.31;50.39;100381.33;1762063;81;21048;-78
2022/09/10 09:56:50;;;;;;;3.02;2.20;;;;;;;25.31;50.37;100372.40;1762451;79;21044;-78
2022/09/10 09:59:33;;;;;;;2.55;2.30;;;;;;;25.32;50.39;100373.20;1762180;81;21151;-78
2022/09/10 10:02:21;;;;;;;3.00;2.33;;;;;;;25.32;50.38;100372.63;1762479;81;21009;-78
2022/09/10 10:05:22;;;;;;;2.60;2.40;;;;;;;25.32;50.37;100375.41;1758285;81;21060;-78
2022/09/10 10:07:48;;;;;;;2.42;2.22;;;;;;;25.32;50.35;100371.81;1757275;81;21040;-78
2022/09/10 10:10:25;;;;;;;2.67;2.37;;;;;;;25.32;50.31;100368.45;1761911;81;21039;-78
2022/09/10 10:12:53;;;;;;;2.50;2.30;;;;;;;25.32;50.30;100365.67;1761215;81;21237;-77
2022/09/10 10:15:40;;;;;;;2.90;2.33;;;;;;;25.33;50.30;100365.87;1751663;80;21623;-78
2022/09/10 10:18:30;;;;;;;3.12;2.35;;;;;;;25.33;50.30;100361.69;1743920;81;21639;-78
2022/09/10 10:21:18;;;;;;;3.55;2.52;;;;;;;25.34;50.29;100366.10;1742120;82;21050;-78
2022/09/10 10:23:45;;;;;;;3.02;2.55;;;;;;;25.34;50.26;100356.35;1719631;82;21581;-77
2022/09/10 10:26:22;;;;;;;3.15;2.50;;;;;;;25.34;50.24;100344.41;1744972;81;21827;-77
2022/09/10 10:29:02;;;;;;;3.33;2.70;;;;;;;25.34;50.24;100342.42;1749295;82;21072;-78
2022/09/10 10:31:43;;;;;;;2.37;2.17;;;;;;;25.34;50.25;100338.83;1736867;81;21087;-78
2022/09/10 10:34:18;;;;;;;2.77;2.17;;;;;;;25.34;50.26;100339.64;1748907;82;21502;-78
2022/09/10 10:37:02;;;;;;;2.90;2.40;;;;;;;25.34;50.24;100336.05;1718791;83;21056;-78
2022/09/10 10:39:59;;;;;;;3.05;2.40;;;;;;;25.35;50.23;100336.28;1719383;82;21321;-79
2022/09/10 10:42:37;;;;;;;2.40;2.20;;;;;;;25.36;50.22;100333.72;1722299;81;21067;-78
2022/09/10 10:45:36;;;;;;;2.45;2.25;;;;;;;25.35;50.20;100337.09;1748866;82;21472;-78
2022/09/10 10:48:37;;;;;;;3.60;2.42;;;;;;;25.35;50.20;100334.89;1740383;82;21526;-78
2022/09/10 10:51:20;;;;;;;3.02;2.40;;;;;;;25.34;50.18;100333.27;1738451;82;21047;-78
2022/09/10 10:54:22;;;;;;;2.65;2.22;;;;;;;25.34;50.16;100329.90;1743684;81;21082;-77
2022/09/10 10:56:58;;;;;;;3.02;2.42;;;;;;;25.35;50.19;100319.57;1749133;82;21083;-77
2022/09/10 10:59:52;;;;;;;2.45;2.25;;;;;;;25.34;50.17;100322.94;1748080;81;20958;-77
2022/09/10 11:02:43;;;;;;;2.42;2.22;;;;;;;25.35;50.17;100318.17;1749297;81;21012;-77
2022/09/10 11:05:31;;;;;;;2.65;2.27;;;;;;;25.34;50.19;100317.37;1749062;82;21012;-77
2022/09/10 11:08:02;;;;;;;2.98;2.55;;;;;;;25.34;50.21;100320.16;1749162;81;21131;-77
2022/09/10 11:10:38;;;;;;;2.90;2.20;;;;;;;25.34;50.19;100313.19;1732238;82;21048;-77
2022/09/10 11:13:16;;;;;;;2.20;2.00;;;;;;;25.34;50.22;100307.62;1727336;81;21579;-77
2022/09/10 11:16:23;;;;;;;3.12;2.42;;;;;;;25.34;50.22;100311.80;1744595;80;21084;-77
2022/09/10 11:19:06;;;;;;;3.02;2.20;;;;;;;25.34;50.22;100311.80;1710039;80;21064;-77
2022/09/10 11:22:05;;;;;;;3.00;2.50;;;;;;;25.35;50.19;100297.30;1750716;81;21181;-77
2022/09/10 11:24:46;;;;;;;2.70;2.20;;;;;;;25.35;50.21;100295.90;1810979;79;21527;-77
2022/09/10 11:27:20;;;;;;;3.25;2.62;;;;;;;25.34;50.20;100290.91;1779918;79;21043;-77
2022/09/10 11:30:09;;;;;;;2.70;2.17;;;;;;;25.35;50.21;100291.14;1775799;80;20983;-77
2022/09/10 11:32:58;;;;;;;3.10;2.25;;;;;;;25.34;50.21;100288.13;1746084;82;21033;-77
2022/09/10 11:35:31;;;;;;;2.52;2.33;;;;;;;25.34;50.22;100282.56;1718538;82;21140;-78
2022/09/10 11:38:19;;;;;;;3.40;2.50;;;;;;;25.34;50.22;100282.56;1762271;81;21012;-77
2022/09/10 11:40:55;;;;;;;2.58;2.20;;;;;;;25.35;50.22;100282.79;1762746;81;21457;-77
2022/09/10 11:43:38;;;;;;;2.70;2.20;;;;;;;25.35;50.23;100280.58;1762439;81;21031;-77
2022/09/10 11:46:18;;;;;;;3.17;2.40;;;;;;;25.36;50.25;100275.25;1762672;81;21059;-78
2022/09/10 11:49:04;;;;;;;2.37;2.00;;;;;;;25.35;50.26;100281.98;1762336;81;21156;-79